Time;durP1;ratioP1;P1;durP2;ratioP2;P2;SDS_P1;SDS_P2;PMS_P1;PMS_P2;Temp;Humidity;BMP_temperature;BMP_pressure;BME280_temperature;BME280_humidity;BME280_pressure;Samples;Min_cycle;Max_cycle;Signal;HPM_P1;HPM_P2
2023/04/28 00:02:06;;;;;;;27.73;14.25;;;;;;;8.55;100.00;100982.59;4868992;29;20047;-79
2023/04/28 00:04:31;;;;;;;28.35;14.57;;;;;;;8.63;100.00;100983.81;4880883;29;20140;-79
2023/04/28 00:06:57;;;;;;;27.15;15.20;;;;;;;8.61;100.00;100995.81;4865541;29;20037;-80
2023/04/28 00:09:24;;;;;;;25.35;13.02;;;;;;;8.59;100.00;101006.84;4865527;29;20041;-81
2023/04/28 00:11:49;;;;;;;28.13;14.85;;;;;;;8.61;100.00;101004.88;4881083;29;20045;-81
2023/04/28 00:14:15;;;;;;;28.98;14.50;;;;;;;8.47;100.00;101002.22;4865913;29;20464;-80
2023/04/28 00:16:40;;;;;;;30.33;15.18;;;;;;;8.52;100.00;101000.03;4867233;29;20052;-80
2023/04/28 00:19:06;;;;;;;31.67;15.98;;;;;;;8.51;100.00;100991.94;4886127;29;20041;-81
2023/04/28 00:21:32;;;;;;;26.98;15.40;;;;;;;8.49;100.00;100991.19;4859010;29;20127;-80
2023/04/28 00:23:57;;;;;;;30.13;16.33;;;;;;;8.46;100.00;100984.97;4866742;29;20480;-81
2023/04/28 00:26:23;;;;;;;32.00;15.35;;;;;;;8.30;100.00;100954.22;4864013;29;20039;-81
2023/04/28 00:28:48;;;;;;;32.75;16.38;;;;;;;8.30;100.00;100943.31;4841678;29;20068;-82
2023/04/28 00:31:15;;;;;;;29.92;16.35;;;;;;;8.43;100.00;100966.06;4860575;29;20049;-82
2023/04/28 00:33:41;;;;;;;33.80;16.08;;;;;;;8.46;100.00;100962.25;4890748;29;20028;-80
2023/04/28 00:36:10;;;;;;;29.88;14.98;;;;;;;8.28;100.00;100953.47;4891465;29;20126;-80
2023/04/28 00:38:36;;;;;;;29.38;14.90;;;;;;;8.33;100.00;100964.94;4893761;29;20058;-79
2023/04/28 00:41:02;;;;;;;31.33;15.52;;;;;;;8.28;100.00;100965.25;4898314;29;20470;-79
2023/04/28 00:43:27;;;;;;;28.80;15.85;;;;;;;8.23;100.00;100964.69;4899187;29;20060;-79
2023/04/28 00:45:53;;;;;;;26.10;15.05;;;;;;;8.15;100.00;100953.41;4896031;29;20048;-81
2023/04/28 00:48:19;;;;;;;39.47;16.50;;;;;;;8.19;100.00;100949.50;4896878;29;20115;-80
2023/04/28 00:50:46;;;;;;;29.27;16.65;;;;;;;8.03;100.00;100916.06;4892809;29;20033;-81
2023/04/28 00:53:12;;;;;;;30.63;16.80;;;;;;;8.20;100.00;100943.06;4895491;29;20049;-81
2023/04/28 00:55:38;;;;;;;33.53;17.58;;;;;;;8.14;100.00;100934.44;4881305;29;20111;-82
2023/04/28 00:58:05;;;;;;;35.17;17.15;;;;;;;8.09;100.00;100934.72;4883602;29;20040;-81
2023/04/28 01:00:31;;;;;;;32.22;18.15;;;;;;;8.13;100.00;100932.66;4899358;29;20036;-81
2023/04/28 01:02:57;;;;;;;36.22;18.17;;;;;;;7.98;100.00;100907.31;4865474;29;20052;-81
2023/04/28 01:05:25;;;;;;;33.92;16.67;;;;;;;8.15;100.00;100930.69;4895139;29;20053;-81
2023/04/28 01:07:50;;;;;;;40.42;17.52;;;;;;;8.05;100.00;100920.44;4893277;29;20045;-81
2023/04/28 01:10:16;;;;;;;32.50;16.25;;;;;;;7.99;100.00;100903.63;4869834;29;20058;-82
2023/04/28 01:12:41;;;;;;;30.92;17.92;;;;;;;8.14;100.00;100921.66;4881935;29;20552;-81
2023/04/28 01:15:14;;;;;;;36.08;17.83;;;;;;;7.94;100.00;100909.38;4871219;29;20029;-82
2023/04/28 01:17:40;;;;;;;;;;;;;;;8.06;100.00;100933.06;4883489;29;20071;-82
2023/04/28 01:20:06;;;;;;;30.23;15.52;;;;;;;8.05;100.00;100916.81;4877339;29;19919;-81
2023/04/28 01:22:32;;;;;;;33.10;16.13;;;;;;;8.04;100.00;100915.94;4875309;29;20040;-81
2023/04/28 01:24:59;;;;;;;27.55;15.18;;;;;;;7.97;100.00;100891.91;4883989;29;20504;-81
2023/04/28 01:27:24;;;;;;;31.80;16.65;;;;;;;7.99;100.00;100909.06;4864849;29;20173;-81
2023/04/28 01:29:50;;;;;;;32.45;15.52;;;;;;;7.98;100.00;100912.78;4866848;29;20056;-81
2023/04/28 01:32:15;;;;;;;35.25;16.27;;;;;;;7.96;100.00;100903.81;4870235;29;20042;-81
2023/04/28 01:34:41;;;;;;;29.50;16.42;;;;;;;8.05;100.00;100901.34;4862656;29;20114;-82
2023/04/28 01:37:06;;;;;;;34.40;16.48;;;;;;;8.05;100.00;100908.63;4890589;29;20083;-81
2023/04/28 01:39:33;;;;;;;30.95;16.35;;;;;;;8.07;100.00;100893.94;4880146;29;20115;-82
2023/04/28 01:41:59;;;;;;;34.15;16.42;;;;;;;8.00;100.00;100887.16;4890475;29;20043;-81
2023/04/28 01:44:24;;;;;;;31.90;16.13;;;;;;;8.10;100.00;100892.88;4887301;29;20032;-81
2023/04/28 01:46:50;;;;;;;34.53;16.75;;;;;;;8.33;100.00;100894.00;4874940;29;20440;-81
2023/04/28 01:49:15;;;;;;;33.67;14.65;;;;;;;8.22;100.00;100867.47;4894289;29;20516;-82
2023/04/28 01:51:41;;;;;;;29.05;15.32;;;;;;;8.20;100.00;100874.88;4878494;29;20035;-82
2023/04/28 01:54:07;;;;;;;28.90;14.90;;;;;;;8.06;100.00;100884.00;4879556;29;20563;-81
2023/04/28 01:56:33;;;;;;;29.00;15.50;;;;;;;8.00;100.00;100864.44;4898974;29;20066;-82
2023/04/28 01:58:58;;;;;;;36.53;17.15;;;;;;;8.02;100.00;100876.16;4887468;29;20045;-82
2023/04/28 02:01:24;;;;;;;29.73;15.45;;;;;;;7.97;100.00;100861.94;4896914;29;20124;-81
2023/04/28 02:03:49;;;;;;;27.60;15.18;;;;;;;8.00;100.00;100870.81;4855706;29;20044;-82
2023/04/28 02:06:15;;;;;;;25.10;14.15;;;;;;;8.06;100.00;100875.81;4862466;29;20052;-81
2023/04/28 02:08:40;;;;;;;33.55;15.50;;;;;;;8.06;100.00;100872.22;4894025;29;20036;-81
2023/04/28 02:11:06;;;;;;;27.52;14.57;;;;;;;8.02;100.00;100874.28;4888149;29;20523;-81
2023/04/28 02:13:31;;;;;;;33.00;14.35;;;;;;;8.02;100.00;100871.56;4893271;29;20040;-80
2023/04/28 02:16:00;;;;;;;28.23;14.52;;;;;;;8.09;100.00;100861.97;4893005;29;20044;-81
2023/04/28 02:18:26;;;;;;;30.88;14.75;;;;;;;8.10;100.00;100851.97;4879057;29;20392;-80
2023/04/28 02:20:51;;;;;;;33.30;14.98;;;;;;;8.09;100.00;100852.94;4889194;29;20035;-81
2023/04/28 02:23:16;;;;;;;38.05;16.38;;;;;;;8.08;100.00;100846.59;4878913;29;20048;-80
2023/04/28 02:25:42;;;;;;;31.23;15.73;;;;;;;8.00;100.00;100842.63;4889468;29;20033;-80
2023/04/28 02:28:07;;;;;;;35.28;15.60;;;;;;;8.01;100.00;100841.66;4876423;29;20469;-81
2023/04/28 02:30:33;;;;;;;32.97;16.65;;;;;;;8.13;100.00;100859.03;4870885;29;20058;-80
2023/04/28 02:32:58;;;;;;;34.65;17.45;;;;;;;8.11;100.00;100859.13;4892758;29;20386;-80
2023/04/28 02:35:24;;;;;;;33.20;16.90;;;;;;;8.09;100.00;100861.97;4865465;29;20123;-80
2023/04/28 02:37:49;;;;;;;35.85;16.05;;;;;;;7.98;100.00;100842.75;4895148;29;20040;-80
2023/04/28 02:40:15;;;;;;;33.60;16.60;;;;;;;8.06;100.00;100848.53;4893215;29;20049;-80
2023/04/28 02:42:40;;;;;;;32.90;17.65;;;;;;;8.09;100.00;100844.75;4885587;29;20115;-79
2023/04/28 02:45:07;;;;;;;27.27;16.38;;;;;;;8.08;100.00;100841.16;4858778;29;20063;-79
2023/04/28 02:47:32;;;;;;;36.00;18.08;;;;;;;8.13;100.00;100834.50;4865450;29;20041;-80
2023/04/28 02:49:57;;;;;;;36.45;17.00;;;;;;;8.13;100.00;100829.03;4895680;29;20049;-80
2023/04/28 02:52:23;;;;;;;31.85;16.77;;;;;;;8.06;100.00;100821.28;4868320;29;20032;-79
2023/04/28 02:54:53;;;;;;;37.00;18.38;;;;;;;8.16;100.00;100809.75;4883071;29;20054;-80
2023/04/28 02:57:19;;;;;;;33.42;17.20;;;;;;;7.99;100.00;100794.56;4892609;29;20047;-81
2023/04/28 02:59:45;;;;;;;36.70;17.55;;;;;;;7.98;100.00;100781.91;4888845;29;20468;-80
2023/04/28 03:02:11;;;;;;;31.92;17.33;;;;;;;8.12;100.00;100773.63;4859992;29;20040;-79
2023/04/28 03:04:36;;;;;;;32.88;17.88;;;;;;;8.05;100.00;100781.38;4897570;29;20421;-79
2023/04/28 03:07:02;;;;;;;34.63;17.65;;;;;;;8.04;100.00;100768.72;4900318;29;20036;-79
2023/04/28 03:09:27;;;;;;;37.60;17.23;;;;;;;8.04;100.00;100760.53;4894935;29;20033;-80
2023/04/28 03:11:53;;;;;;;32.67;16.92;;;;;;;8.10;100.00;100749.19;4892730;29;20028;-80
2023/04/28 03:14:18;;;;;;;36.42;18.40;;;;;;;8.07;100.00;100741.22;4895429;29;20041;-80
2023/04/28 03:16:44;;;;;;;38.05;17.85;;;;;;;8.03;100.00;100725.19;4884286;29;20112;-80
2023/04/28 03:19:09;;;;;;;38.30;17.90;;;;;;;8.07;100.00;100732.19;4884033;29;20033;-80
2023/04/28 03:21:35;;;;;;;40.08;18.17;;;;;;;8.19;100.00;100760.44;4883947;29;20290;-80
2023/04/28 03:24:03;;;;;;;34.78;18.13;;;;;;;8.21;100.00;100766.66;4862039;29;20036;-80
2023/04/28 03:26:29;;;;;;;39.20;18.20;;;;;;;8.38;100.00;100792.72;4856581;29;20475;-80
2023/04/28 03:28:55;;;;;;;35.50;18.40;;;;;;;8.38;100.00;100784.53;4893878;29;20131;-80
2023/04/28 03:31:21;;;;;;;37.95;19.67;;;;;;;8.45;100.00;100784.03;4873025;29;20033;-80
2023/04/28 03:33:46;;;;;;;33.03;18.23;;;;;;;8.42;100.00;100769.72;4901275;29;20044;-80
2023/04/28 03:36:12;;;;;;;38.05;18.73;;;;;;;8.38;100.00;100762.72;4871640;29;20036;-80
2023/04/28 03:38:37;;;;;;;37.88;17.65;;;;;;;8.46;100.00;100766.69;4861546;29;20036;-80
2023/04/28 03:41:03;;;;;;;40.42;18.08;;;;;;;8.51;100.00;100769.09;4898799;29;20056;-80
2023/04/28 03:43:28;;;;;;;33.35;17.40;;;;;;;8.54;100.00;100781.63;4901662;29;20044;-79
2023/04/28 03:45:54;;;;;;;30.90;17.77;;;;;;;8.54;100.00;100766.13;4883141;29;20041;-79
2023/04/28 03:48:19;;;;;;;34.60;17.35;;;;;;;8.60;100.00;100773.88;4877414;29;20036;-80
2023/04/28 03:50:45;;;;;;;38.83;18.13;;;;;;;8.65;100.00;100768.94;4882609;29;20037;-79
2023/04/28 03:53:10;;;;;;;38.97;19.58;;;;;;;8.80;100.00;100755.16;4880116;29;20040;-80
2023/04/28 03:55:37;;;;;;;32.38;17.90;;;;;;;8.94;100.00;100765.09;4896556;29;20410;-81
2023/04/28 03:58:02;;;;;;;37.53;17.65;;;;;;;8.86;100.00;100759.31;4900623;29;20078;-81
2023/04/28 04:00:28;;;;;;;37.63;19.45;;;;;;;8.97;100.00;100760.25;4897810;29;20504;-81
2023/04/28 04:02:53;;;;;;;34.63;18.65;;;;;;;9.05;100.00;100758.81;4868298;29;20042;-80
2023/04/28 04:05:19;;;;;;;39.28;19.02;;;;;;;8.92;100.00;100739.72;4902692;29;20083;-80
2023/04/28 04:07:44;;;;;;;33.47;18.60;;;;;;;8.97;100.00;100743.88;4896874;29;20054;-80
2023/04/28 04:10:10;;;;;;;37.50;19.08;;;;;;;8.91;100.00;100751.66;4885328;29;20063;-80
2023/04/28 04:12:35;;;;;;;39.30;19.63;;;;;;;9.05;100.00;100753.34;4883209;29;20101;-81
2023/04/28 04:15:01;;;;;;;43.33;18.77;;;;;;;8.95;100.00;100728.59;4899847;29;20091;-79
2023/04/28 04:17:27;;;;;;;36.40;19.85;;;;;;;9.12;100.00;100749.19;4884184;29;20044;-78
2023/04/28 04:19:52;;;;;;;40.05;17.33;;;;;;;8.97;100.00;100748.47;4888605;29;20253;-80
2023/04/28 04:22:18;;;;;;;34.88;18.98;;;;;;;9.07;100.00;100738.59;4871526;29;20064;-80
2023/04/28 04:24:43;;;;;;;35.88;19.00;;;;;;;9.04;100.00;100735.25;4883697;29;20045;-80
2023/04/28 04:27:29;;;;;;;31.80;19.10;;;;;;;9.09;100.00;100744.81;4877660;29;20459;-81
2023/04/28 04:29:54;;;;;;;34.35;20.02;;;;;;;9.07;100.00;100726.78;4902176;29;20071;-80
2023/04/28 04:32:20;;;;;;;36.67;19.88;;;;;;;9.02;100.00;100730.75;4895055;29;20028;-81
2023/04/28 04:34:45;;;;;;;37.88;18.48;;;;;;;9.08;100.00;100739.47;4867198;29;20036;-80
2023/04/28 04:37:11;;;;;;;34.83;19.33;;;;;;;9.06;100.00;100727.78;4877534;29;20044;-81
2023/04/28 04:39:39;;;;;;;39.30;18.92;;;;;;;9.06;100.00;100719.59;4885538;29;20037;-80
2023/04/28 04:42:05;;;;;;;41.47;19.88;;;;;;;9.13;100.00;100726.34;4889919;29;20059;-80
2023/04/28 04:44:30;;;;;;;38.83;19.75;;;;;;;9.16;100.00;100731.56;4876324;29;20095;-80
2023/04/28 04:46:55;;;;;;;33.78;19.02;;;;;;;9.20;100.00;100728.50;4870940;29;20507;-79
2023/04/28 04:49:21;;;;;;;36.25;18.90;;;;;;;9.11;100.00;100706.47;4892817;29;20037;-83
2023/04/28 04:51:46;;;;;;;34.35;19.00;;;;;;;9.38;100.00;100728.09;4898118;29;20032;-83
2023/04/28 04:54:12;;;;;;;36.88;19.73;;;;;;;9.41;100.00;100724.25;4883818;29;20116;-83
2023/04/28 04:56:37;;;;;;;38.83;19.15;;;;;;;9.28;100.00;100719.72;4904616;29;20047;-82
2023/04/28 04:59:03;;;;;;;42.42;18.92;;;;;;;9.50;100.00;100726.28;4902146;29;20067;-82
2023/04/28 05:01:28;;;;;;;33.88;18.15;;;;;;;9.44;100.00;100715.81;4887027;29;20024;-82
2023/04/28 05:03:54;;;;;;;27.63;17.30;;;;;;;9.51;100.00;100722.53;4855948;29;20481;-82
2023/04/28 05:06:19;;;;;;;32.50;18.88;;;;;;;9.52;100.00;100711.50;4874041;29;20132;-81
2023/04/28 05:08:45;;;;;;;33.45;18.38;;;;;;;9.46;100.00;100697.44;4850238;29;20037;-81
2023/04/28 05:11:10;;;;;;;32.97;17.77;;;;;;;9.49;100.00;100699.94;4865674;29;20037;-81
2023/04/28 05:13:36;;;;;;;29.77;17.60;;;;;;;9.52;100.00;100706.03;4893496;29;20060;-81
2023/04/28 05:16:01;;;;;;;34.75;19.48;;;;;;;9.69;100.00;100706.56;4871901;29;20037;-81
2023/04/28 05:18:27;;;;;;;33.20;17.50;;;;;;;9.66;100.00;100702.25;4890207;29;20037;-81
2023/04/28 05:20:52;;;;;;;32.85;18.52;;;;;;;9.56;100.00;100690.28;4849568;29;20037;-82
2023/04/28 05:23:17;;;;;;;33.50;17.52;;;;;;;9.73;100.00;100706.22;4849257;29;20075;-82
2023/04/28 05:25:43;;;;;;;31.17;18.70;;;;;;;9.75;100.00;100715.16;4860773;29;20047;-81
2023/04/28 05:28:09;;;;;;;29.23;18.83;;;;;;;9.77;100.00;100711.44;4884414;29;20029;-81
2023/04/28 05:30:35;;;;;;;36.17;17.38;;;;;;;9.85;100.00;100717.19;4897612;29;20408;-80
2023/04/28 05:33:00;;;;;;;25.45;16.48;;;;;;;9.81;100.00;100715.72;4896067;29;20048;-80
2023/04/28 05:35:26;;;;;;;27.67;18.05;;;;;;;9.99;100.00;100707.91;4854388;29;20446;-82
2023/04/28 05:37:51;;;;;;;34.35;16.42;;;;;;;9.91;100.00;100716.72;4852092;29;20040;-80
2023/04/28 05:40:19;;;;;;;33.67;17.52;;;;;;;9.96;100.00;100719.09;4868708;29;20040;-81
2023/04/28 05:42:45;;;;;;;30.15;16.63;;;;;;;9.90;100.00;100704.91;4879541;29;20120;-81
2023/04/28 05:45:10;;;;;;;31.65;17.35;;;;;;;9.99;100.00;100689.63;4856709;29;20100;-82
2023/04/28 05:47:39;;;;;;;25.77;16.23;;;;;;;10.05;100.00;100700.09;4893899;29;20048;-82
2023/04/28 05:50:05;;;;;;;26.27;16.40;;;;;;;10.02;100.00;100694.88;4876948;29;20045;-81
2023/04/28 05:52:31;;;;;;;32.38;16.75;;;;;;;10.06;100.00;100687.28;4861715;29;20040;-79
2023/04/28 05:54:56;;;;;;;29.65;15.63;;;;;;;10.07;100.00;100683.56;4868068;29;20036;-81
2023/04/28 05:57:22;;;;;;;30.33;16.27;;;;;;;10.14;100.00;100689.41;4868453;29;20047;-78
2023/04/28 05:59:47;;;;;;;25.08;15.98;;;;;;;10.16;100.00;100688.28;4899427;29;20480;-80
2023/04/28 06:02:12;;;;;;;31.65;16.50;;;;;;;10.20;100.00;100687.06;4880628;29;20512;-82
2023/04/28 06:04:38;;;;;;;30.92;15.93;;;;;;;10.24;100.00;100691.25;4870198;29;20072;-79
2023/04/28 06:07:03;;;;;;;25.20;15.95;;;;;;;10.38;100.00;100701.16;4894181;29;20123;-79
2023/04/28 06:09:30;;;;;;;30.35;15.38;;;;;;;10.37;100.00;100702.13;4890077;29;20036;-79
2023/04/28 06:11:55;;;;;;;25.77;15.73;;;;;;;10.35;100.00;100706.88;4885822;29;20462;-80
2023/04/28 06:14:21;;;;;;;29.52;16.55;;;;;;;10.43;100.00;100706.25;4863766;29;20044;-81
2023/04/28 06:16:47;;;;;;;26.20;15.18;;;;;;;10.53;100.00;100711.84;4885697;29;20032;-81
2023/04/28 06:19:14;;;;;;;36.15;15.32;;;;;;;10.48;100.00;100704.00;4871571;29;20527;-80
2023/04/28 06:21:40;;;;;;;25.55;15.35;;;;;;;10.52;100.00;100708.22;4864792;29;20128;-79
2023/04/28 06:24:05;;;;;;;28.63;15.00;;;;;;;10.58;100.00;100709.59;4875421;29;20064;-79
2023/04/28 06:26:31;;;;;;;24.52;15.25;;;;;;;10.64;100.00;100712.72;4883325;29;20037;-80
2023/04/28 06:28:56;;;;;;;28.52;16.52;;;;;;;10.74;100.00;100698.25;4896419;29;20068;-80
2023/04/28 06:31:21;;;;;;;31.83;15.82;;;;;;;10.88;100.00;100699.84;4879949;29;20059;-80
2023/04/28 06:33:47;;;;;;;24.48;15.18;;;;;;;10.90;100.00;100682.28;4892382;29;20043;-79
2023/04/28 06:36:12;;;;;;;26.88;15.05;;;;;;;11.02;100.00;100699.59;4878905;29;20137;-78
2023/04/28 06:38:40;;;;;;;21.60;15.27;;;;;;;11.04;100.00;100698.44;4877012;29;20037;-81
2023/04/28 06:41:05;;;;;;;28.45;14.57;;;;;;;11.09;100.00;100702.69;4898622;29;20037;-81
2023/04/28 06:43:32;;;;;;;26.40;15.95;;;;;;;11.14;100.00;100703.16;4874066;29;20166;-79
2023/04/28 06:45:57;;;;;;;31.80;16.63;;;;;;;11.16;100.00;100690.19;4899948;29;20421;-81
2023/04/28 06:48:24;;;;;;;31.48;17.33;;;;;;;11.27;100.00;100692.03;4876052;29;20044;-82
2023/04/28 06:50:50;;;;;;;26.90;15.35;;;;;;;11.39;100.00;100701.94;4882176;29;20119;-84
2023/04/28 06:53:15;;;;;;;30.75;16.25;;;;;;;11.29;100.00;100677.19;4883731;29;20123;-84
2023/04/28 06:55:41;;;;;;;24.42;16.08;;;;;;;11.56;100.00;100682.19;4867546;29;20040;-81
2023/04/28 06:58:07;;;;;;;27.52;15.63;;;;;;;11.69;100.00;100676.50;4904467;29;20115;-82
2023/04/28 07:00:33;;;;;;;27.35;15.75;;;;;;;12.20;100.00;100682.16;4879030;29;20037;-81
2023/04/28 07:03:00;;;;;;;25.05;14.93;;;;;;;12.01;100.00;100688.44;4877072;29;20421;-81
2023/04/28 07:05:26;;;;;;;24.83;15.68;;;;;;;11.76;100.00;100674.09;4883353;29;20024;-80
2023/04/28 07:07:52;;;;;;;30.35;15.25;;;;;;;11.75;100.00;100672.34;4904432;29;20032;-80
2023/04/28 07:10:17;;;;;;;25.17;14.68;;;;;;;11.87;100.00;100682.25;4890349;29;20056;-80
2023/04/28 07:12:43;;;;;;;26.88;14.27;;;;;;;11.97;100.00;100684.22;4886030;29;20060;-81
2023/04/28 07:15:09;;;;;;;22.45;14.50;;;;;;;11.91;100.00;100686.50;4882732;29;20045;-80
2023/04/28 07:17:35;;;;;;;23.95;13.73;;;;;;;11.84;100.00;100690.75;4847902;29;20041;-77
2023/04/28 07:20:02;;;;;;;25.42;14.82;;;;;;;11.91;100.00;100661.81;4869483;29;20128;-80
2023/04/28 07:22:28;;;;;;;22.67;15.63;;;;;;;12.27;100.00;100687.00;4888598;29;20045;-78
2023/04/28 07:24:53;;;;;;;23.35;14.57;;;;;;;12.32;100.00;100687.44;4890805;29;20141;-77
2023/04/28 07:27:19;;;;;;;26.63;15.95;;;;;;;12.08;100.00;100685.00;4876642;29;20451;-77
2023/04/28 07:29:44;;;;;;;34.22;17.63;;;;;;;12.07;100.00;100666.81;4890407;29;20072;-78
2023/04/28 07:32:10;;;;;;;27.33;16.30;;;;;;;11.99;100.00;100677.59;4876333;29;20060;-78
2023/04/28 07:34:36;;;;;;;24.95;14.32;;;;;;;12.13;100.00;100679.09;4906425;29;20088;-77
2023/04/28 07:37:02;;;;;;;24.23;15.27;;;;;;;12.25;100.00;100680.78;4884285;29;20038;-77
2023/04/28 07:39:30;;;;;;;25.77;14.57;;;;;;;12.34;100.00;100679.06;4898108;29;20066;-77
2023/04/28 07:41:56;;;;;;;27.17;14.70;;;;;;;12.45;100.00;100675.38;4885360;29;20096;-77
2023/04/28 07:44:22;;;;;;;27.35;15.65;;;;;;;12.29;100.00;100675.88;4894336;29;20044;-77
2023/04/28 07:46:48;;;;;;;25.02;15.13;;;;;;;12.45;100.00;100672.63;4888740;29;20051;-78
2023/04/28 07:49:13;;;;;;;26.15;16.17;;;;;;;12.23;100.00;100674.56;4848493;29;20048;-78
2023/04/28 07:51:39;;;;;;;29.40;14.77;;;;;;;12.19;100.00;100684.06;4884832;29;20124;-77
2023/04/28 07:54:04;;;;;;;28.80;14.68;;;;;;;12.09;100.00;100683.16;4870707;29;20033;-78
2023/04/28 07:56:30;;;;;;;25.27;15.27;;;;;;;12.05;100.00;100677.06;4884400;29;20127;-79
2023/04/28 07:58:55;;;;;;;26.98;16.65;;;;;;;12.20;100.00;100684.91;4876174;29;20123;-78
2023/04/28 08:01:21;;;;;;;23.63;15.98;;;;;;;12.10;100.00;100679.38;4885190;29;20071;-81
2023/04/28 08:03:46;;;;;;;27.63;16.77;;;;;;;12.19;100.00;100680.47;4886804;29;20037;-79
2023/04/28 08:06:12;;;;;;;25.95;17.02;;;;;;;12.15;100.00;100671.63;4863585;29;20113;-78
2023/04/28 08:08:38;;;;;;;28.75;16.80;;;;;;;12.24;100.00;100672.69;4893752;29;20117;-79
2023/04/28 08:11:03;;;;;;;27.65;17.92;;;;;;;12.37;100.00;100676.06;4888303;29;20124;-78
2023/04/28 08:13:29;;;;;;;27.17;16.58;;;;;;;12.51;100.00;100680.31;4897322;29;20346;-78
2023/04/28 08:15:55;;;;;;;29.58;16.85;;;;;;;12.52;100.00;100681.19;4882901;29;20489;-77
2023/04/28 08:18:21;;;;;;;24.95;17.40;;;;;;;12.58;100.00;100691.63;4889802;29;20100;-77
2023/04/28 08:20:47;;;;;;;26.92;17.52;;;;;;;12.59;100.00;100685.09;4859592;29;20032;-77
2023/04/28 08:23:12;;;;;;;31.88;16.77;;;;;;;12.48;100.00;100664.97;4882685;29;20083;-77
2023/04/28 08:25:38;;;;;;;32.20;17.30;;;;;;;12.55;100.00;100669.94;4888284;29;20041;-77
2023/04/28 08:28:05;;;;;;;33.90;18.15;;;;;;;12.46;100.00;100666.09;4879988;29;20119;-77
2023/04/28 08:30:31;;;;;;;37.25;18.20;;;;;;;12.60;100.00;100671.22;4889869;29;20128;-78
2023/04/28 08:32:56;;;;;;;27.85;17.33;;;;;;;12.54;100.00;100680.00;4853397;29;20049;-76
2023/04/28 08:35:22;;;;;;;30.15;18.08;;;;;;;12.65;100.00;100688.16;4881087;29;20526;-77
2023/04/28 08:37:48;;;;;;;33.25;19.65;;;;;;;12.70;100.00;100701.47;4884495;29;20105;-78
2023/04/28 08:40:14;;;;;;;30.10;19.00;;;;;;;12.51;100.00;100683.06;4866019;29;20032;-77
2023/04/28 08:42:40;;;;;;;35.25;19.52;;;;;;;12.54;100.00;100688.25;4878578;29;20077;-77
2023/04/28 08:45:10;;;;;;;32.85;19.52;;;;;;;12.66;100.00;100687.16;4883985;29;20039;-77
2023/04/28 08:47:38;;;;;;;34.15;19.27;;;;;;;12.58;100.00;100680.63;4865372;29;20044;-80
2023/04/28 08:50:06;;;;;;;32.00;18.70;;;;;;;12.65;100.00;100685.41;4884357;29;20050;-79
2023/04/28 08:52:32;;;;;;;33.28;19.75;;;;;;;12.73;100.00;100690.22;4865693;29;20037;-78
2023/04/28 08:55:00;;;;;;;35.40;20.92;;;;;;;12.73;100.00;100683.88;4884367;29;20036;-77
2023/04/28 08:57:29;;;;;;;41.03;20.90;;;;;;;12.70;100.00;100679.50;4899252;29;20145;-77
2023/04/28 08:59:55;;;;;;;38.20;20.73;;;;;;;12.81;100.00;100695.03;4912741;29;20037;-77
2023/04/28 09:02:22;;;;;;;32.78;20.23;;;;;;;12.80;100.00;100685.03;4881173;29;20450;-77
2023/04/28 09:04:47;;;;;;;42.60;23.92;;;;;;;12.90;100.00;100688.66;4871378;29;20052;-77
2023/04/28 09:07:13;;;;;;;35.97;22.17;;;;;;;12.96;100.00;100684.50;4886573;29;20051;-77
2023/04/28 09:09:39;;;;;;;36.95;23.30;;;;;;;13.10;100.00;100691.44;4886082;29;20036;-77
2023/04/28 09:12:06;;;;;;;41.33;22.58;;;;;;;13.20;100.00;100686.88;4913631;29;20032;-78
2023/04/28 09:14:33;;;;;;;35.13;21.88;;;;;;;13.06;100.00;100675.25;4882799;29;20413;-77
2023/04/28 09:16:59;;;;;;;39.28;22.40;;;;;;;13.19;100.00;100691.47;4883666;29;20457;-77
2023/04/28 09:19:33;;;;;;;33.58;21.63;;;;;;;13.21;100.00;100691.34;4877232;29;20040;-77
2023/04/28 09:21:59;;;;;;;32.88;20.70;;;;;;;13.12;100.00;100684.81;4888951;29;20556;-77
2023/04/28 09:24:27;;;;;;;31.45;21.55;;;;;;;13.19;100.00;100683.22;4881887;29;20040;-78
2023/04/28 09:26:53;;;;;;;35.47;22.73;;;;;;;13.07;100.00;100670.63;4918944;29;20063;-77
2023/04/28 09:29:18;;;;;;;26.90;18.75;;;;;;;13.31;100.00;100678.44;4866150;29;20088;-79
2023/04/28 09:31:44;;;;;;;29.42;19.90;;;;;;;13.34;100.00;100685.59;4853894;29;20123;-78
2023/04/28 09:34:11;;;;;;;31.38;19.13;;;;;;;13.25;100.00;100681.81;4964298;23;20214;-79
2023/04/28 09:36:36;;;;;;;28.20;18.88;;;;;;;13.32;100.00;100674.72;4856773;29;20117;-79
2023/04/28 09:39:03;;;;;;;28.38;18.42;;;;;;;13.31;100.00;100670.19;4841122;29;20673;-76
2023/04/28 09:41:46;;;;;;;31.88;20.20;;;;;;;13.28;100.00;100676.03;4841362;29;20037;-76
2023/04/28 09:44:17;;;;;;;30.63;19.35;;;;;;;13.33;100.00;100654.47;4840457;29;20048;-78
2023/04/28 09:46:44;;;;;;;29.52;19.10;;;;;;;13.65;100.00;100682.69;4840453;29;20474;-77
2023/04/28 09:49:12;;;;;;;27.63;17.60;;;;;;;13.55;100.00;100685.47;4850694;29;20042;-80
2023/04/28 09:51:38;;;;;;;32.10;19.63;;;;;;;13.52;100.00;100683.00;4841818;29;20026;-77
2023/04/28 09:54:04;;;;;;;31.02;19.00;;;;;;;13.50;100.00;100683.13;4825864;29;20046;-78
2023/04/28 09:56:31;;;;;;;29.20;18.50;;;;;;;13.73;100.00;100678.19;4842357;29;20034;-76
2023/04/28 09:58:58;;;;;;;31.85;19.30;;;;;;;13.71;100.00;100684.88;4841925;29;20042;-78
2023/04/28 10:01:26;;;;;;;29.00;18.42;;;;;;;13.70;100.00;100683.13;4838468;29;20046;-78
2023/04/28 10:03:52;;;;;;;27.60;18.15;;;;;;;13.78;100.00;100692.38;4832498;29;20034;-77
2023/04/28 10:06:19;;;;;;;25.27;16.88;;;;;;;13.65;100.00;100688.19;4841102;29;20375;-77
2023/04/28 10:08:47;;;;;;;31.40;19.13;;;;;;;13.65;100.00;100686.31;4841273;29;20108;-77
2023/04/28 10:11:15;;;;;;;27.30;18.83;;;;;;;13.64;100.00;100687.31;4822827;29;20048;-76
2023/04/28 10:13:42;;;;;;;35.10;20.20;;;;;;;13.60;100.00;100697.75;4849566;29;20039;-77
2023/04/28 10:16:09;;;;;;;35.75;20.15;;;;;;;13.59;100.00;100695.13;4832782;29;20042;-77
2023/04/28 10:18:36;;;;;;;37.35;21.38;;;;;;;13.59;100.00;100695.13;4810111;29;20030;-77
2023/04/28 10:21:04;;;;;;;31.40;19.48;;;;;;;13.63;100.00;100699.34;4839802;29;20174;-77
2023/04/28 10:23:51;;;;;;;34.63;20.95;;;;;;;13.89;100.00;100691.38;4855872;29;20046;-77
2023/04/28 10:26:20;;;;;;;36.90;21.27;;;;;;;13.93;100.00;100697.44;4840759;29;20038;-78
2023/04/28 10:28:50;;;;;;;34.35;20.17;;;;;;;14.00;100.00;100692.22;4840951;29;20034;-76
2023/04/28 10:31:19;;;;;;;31.70;19.52;;;;;;;13.94;100.00;100697.28;4854099;29;20092;-77
2023/04/28 10:33:46;;;;;;;30.98;18.83;;;;;;;13.77;100.00;100693.41;4838723;29;20042;-77
2023/04/28 10:36:51;;;;;;;30.17;20.77;;;;;;;14.02;100.00;100691.06;4836506;29;20414;-77
2023/04/28 10:39:17;;;;;;;30.77;19.85;;;;;;;14.25;100.00;100697.09;4851936;29;20038;-79
2023/04/28 10:41:45;;;;;;;29.95;19.27;;;;;;;14.12;100.00;100691.91;4841847;29;20452;-77
2023/04/28 10:44:29;;;;;;;29.70;19.25;;;;;;;14.13;100.00;100690.00;4858370;29;20038;-78
2023/04/28 10:47:08;;;;;;;33.03;20.70;;;;;;;14.23;100.00;100679.84;4842731;29;20087;-79
2023/04/28 10:49:58;;;;;;;28.25;19.75;;;;;;;14.29;100.00;100686.63;4865539;29;20114;-80
2023/04/28 10:52:36;;;;;;;30.60;21.27;;;;;;;14.41;100.00;100682.66;4842859;29;20061;-79
2023/04/28 10:55:38;;;;;;;27.80;18.02;;;;;;;14.24;100.00;100684.31;4864095;29;20053;-80
2023/04/28 10:58:19;;;;;;;29.13;18.80;;;;;;;14.19;100.00;100689.41;4854810;29;20518;-79
2023/04/28 11:00:47;;;;;;;27.77;18.35;;;;;;;14.24;100.00;100681.56;4833528;29;20133;-81
2023/04/28 11:03:38;;;;;;;31.63;18.58;;;;;;;14.42;100.00;100692.66;4833688;29;20046;-77
2023/04/28 11:06:25;;;;;;;29.20;18.55;;;;;;;14.32;100.00;100692.69;4841349;29;20034;-77